sensor_id;sensor_type;location;lat;lon;timestamp;P1;durP1;ratioP1;P2;durP2;ratioP2
76995;SDS011;65929;49.062;10.338;2023-02-28T00:00:01;2.65;;;2.30;;
76995;SDS011;65929;49.062;10.338;2023-02-28T00:01:10;3.05;;;1.88;;
76995;SDS011;65929;49.062;10.338;2023-02-28T00:02:12;1.65;;;1.38;;
76995;SDS011;65929;49.062;10.338;2023-02-28T00:03:12;5.45;;;1.65;;
76995;SDS011;65929;49.062;10.338;2023-02-28T00:04:15;3.78;;;1.65;;
76995;SDS011;65929;49.062;10.338;2023-02-28T00:05:16;2.42;;;1.70;;
76995;SDS011;65929;49.062;10.338;2023-02-28T00:06:20;1.90;;;1.60;;
76995;SDS011;65929;49.062;10.338;2023-02-28T00:07:21;3.95;;;2.08;;
76995;SDS011;65929;49.062;10.338;2023-02-28T00:08:22;2.10;;;1.50;;
76995;SDS011;65929;49.062;10.338;2023-02-28T00:09:22;2.58;;;1.40;;
76995;SDS011;65929;49.062;10.338;2023-02-28T00:10:24;2.65;;;1.80;;
76995;SDS011;65929;49.062;10.338;2023-02-28T00:11:27;3.78;;;2.08;;
76995;SDS011;65929;49.062;10.338;2023-02-28T00:12:28;1.90;;;1.52;;
76995;SDS011;65929;49.062;10.338;2023-02-28T00:13:28;3.55;;;1.67;;
76995;SDS011;65929;49.062;10.338;2023-02-28T00:14:29;4.45;;;1.83;;
76995;SDS011;65929;49.062;10.338;2023-02-28T00:15:30;2.60;;;1.40;;
76995;SDS011;65929;49.062;10.338;2023-02-28T00:16:32;2.08;;;1.80;;
76995;SDS011;65929;49.062;10.338;2023-02-28T00:17:33;3.63;;;1.70;;
76995;SDS011;65929;49.062;10.338;2023-02-28T00:18:34;3.42;;;1.98;;
76995;SDS011;65929;49.062;10.338;2023-02-28T00:19:37;2.70;;;1.58;;
76995;SDS011;65929;49.062;10.338;2023-02-28T00:20:38;2.83;;;1.80;;
76995;SDS011;65929;49.062;10.338;2023-02-28T00:21:38;2.08;;;1.30;;
76995;SDS011;65929;49.062;10.338;2023-02-28T00:22:41;2.70;;;1.58;;
76995;SDS011;65929;49.062;10.338;2023-02-28T00:23:43;2.95;;;1.48;;
76995;SDS011;65929;49.062;10.338;2023-02-28T00:24:44;2.05;;;1.48;;
76995;SDS011;65929;49.062;10.338;2023-02-28T00:25:45;3.75;;;1.80;;
76995;SDS011;65929;49.062;10.338;2023-02-28T00:26:46;1.77;;;1.67;;
76995;SDS011;65929;49.062;10.338;2023-02-28T00:27:47;2.25;;;1.65;;
76995;SDS011;65929;49.062;10.338;2023-02-28T00:28:49;1.75;;;1.60;;
76995;SDS011;65929;49.062;10.338;2023-02-28T00:29:52;3.65;;;1.80;;
76995;SDS011;65929;49.062;10.338;2023-02-28T00:30:54;3.20;;;1.85;;
76995;SDS011;65929;49.062;10.338;2023-02-28T00:31:55;3.20;;;1.63;;
76995;SDS011;65929;49.062;10.338;2023-02-28T00:32:56;3.42;;;1.92;;
76995;SDS011;65929;49.062;10.338;2023-02-28T00:33:57;3.95;;;2.00;;
76995;SDS011;65929;49.062;10.338;2023-02-28T00:34:59;2.05;;;1.60;;
76995;SDS011;65929;49.062;10.338;2023-02-28T00:36:01;4.10;;;2.20;;
76995;SDS011;65929;49.062;10.338;2023-02-28T00:37:04;3.88;;;2.00;;
76995;SDS011;65929;49.062;10.338;2023-02-28T00:38:05;4.25;;;1.80;;
76995;SDS011;65929;49.062;10.338;2023-02-28T00:39:06;2.60;;;1.80;;
76995;SDS011;65929;49.062;10.338;2023-02-28T00:40:08;4.50;;;2.00;;
76995;SDS011;65929;49.062;10.338;2023-02-28T00:41:12;3.67;;;1.65;;
76995;SDS011;65929;49.062;10.338;2023-02-28T00:42:13;2.78;;;1.65;;
76995;SDS011;65929;49.062;10.338;2023-02-28T00:43:14;2.92;;;2.08;;
76995;SDS011;65929;49.062;10.338;2023-02-28T00:44:14;2.97;;;1.70;;
76995;SDS011;65929;49.062;10.338;2023-02-28T00:45:16;2.78;;;1.70;;
76995;SDS011;65929;49.062;10.338;2023-02-28T00:46:16;4.10;;;1.67;;
76995;SDS011;65929;49.062;10.338;2023-02-28T00:47:18;8.07;;;2.35;;
76995;SDS011;65929;49.062;10.338;2023-02-28T00:48:19;2.83;;;1.77;;
76995;SDS011;65929;49.062;10.338;2023-02-28T00:49:19;4.63;;;2.22;;
76995;SDS011;65929;49.062;10.338;2023-02-28T00:50:22;3.38;;;2.03;;
76995;SDS011;65929;49.062;10.338;2023-02-28T00:51:23;2.72;;;1.45;;
76995;SDS011;65929;49.062;10.338;2023-02-28T00:52:24;5.88;;;2.10;;
76995;SDS011;65929;49.062;10.338;2023-02-28T00:53:26;2.28;;;1.60;;
76995;SDS011;65929;49.062;10.338;2023-02-28T00:54:26;4.68;;;1.80;;
76995;SDS011;65929;49.062;10.338;2023-02-28T00:55:27;2.97;;;1.88;;
76995;SDS011;65929;49.062;10.338;2023-02-28T00:56:28;3.30;;;1.55;;
76995;SDS011;65929;49.062;10.338;2023-02-28T00:57:29;4.55;;;1.60;;
76995;SDS011;65929;49.062;10.338;2023-02-28T00:58:30;2.88;;;1.95;;
76995;SDS011;65929;49.062;10.338;2023-02-28T00:59:31;6.40;;;2.10;;
76995;SDS011;65929;49.062;10.338;2023-02-28T01:00:32;4.35;;;2.10;;
76995;SDS011;65929;49.062;10.338;2023-02-28T01:01:33;2.17;;;1.45;;
76995;SDS011;65929;49.062;10.338;2023-02-28T01:02:34;2.30;;;1.90;;
76995;SDS011;65929;49.062;10.338;2023-02-28T01:03:35;3.65;;;1.88;;
76995;SDS011;65929;49.062;10.338;2023-02-28T01:04:36;3.03;;;1.83;;
76995;SDS011;65929;49.062;10.338;2023-02-28T01:05:39;3.95;;;1.67;;
76995;SDS011;65929;49.062;10.338;2023-02-28T01:06:41;3.25;;;1.98;;
76995;SDS011;65929;49.062;10.338;2023-02-28T01:07:42;2.78;;;1.60;;
76995;SDS011;65929;49.062;10.338;2023-02-28T01:08:43;3.95;;;2.00;;
76995;SDS011;65929;49.062;10.338;2023-02-28T01:09:44;2.85;;;1.77;;
76995;SDS011;65929;49.062;10.338;2023-02-28T01:10:45;3.70;;;1.90;;
76995;SDS011;65929;49.062;10.338;2023-02-28T01:11:45;4.25;;;1.90;;
76995;SDS011;65929;49.062;10.338;2023-02-28T01:12:46;3.55;;;1.60;;
76995;SDS011;65929;49.062;10.338;2023-02-28T01:13:47;3.33;;;1.88;;
76995;SDS011;65929;49.062;10.338;2023-02-28T01:14:48;4.03;;;1.92;;
76995;SDS011;65929;49.062;10.338;2023-02-28T01:15:50;3.45;;;2.00;;
76995;SDS011;65929;49.062;10.338;2023-02-28T01:16:52;2.78;;;1.63;;
76995;SDS011;65929;49.062;10.338;2023-02-28T01:17:53;4.75;;;2.85;;
76995;SDS011;65929;49.062;10.338;2023-02-28T01:18:54;3.08;;;1.80;;
76995;SDS011;65929;49.062;10.338;2023-02-28T01:19:56;2.50;;;1.55;;
76995;SDS011;65929;49.062;10.338;2023-02-28T01:20:58;4.90;;;2.75;;
76995;SDS011;65929;49.062;10.338;2023-02-28T01:22:04;4.32;;;2.00;;
76995;SDS011;65929;49.062;10.338;2023-02-28T01:23:06;6.53;;;1.95;;
76995;SDS011;65929;49.062;10.338;2023-02-28T01:24:07;5.65;;;2.22;;
76995;SDS011;65929;49.062;10.338;2023-02-28T01:25:08;3.55;;;2.25;;
76995;SDS011;65929;49.062;10.338;2023-02-28T01:26:10;3.03;;;1.92;;
76995;SDS011;65929;49.062;10.338;2023-02-28T01:27:13;5.63;;;1.90;;
76995;SDS011;65929;49.062;10.338;2023-02-28T01:28:14;2.28;;;1.90;;
76995;SDS011;65929;49.062;10.338;2023-02-28T01:29:14;2.83;;;1.55;;
76995;SDS011;65929;49.062;10.338;2023-02-28T01:30:16;3.97;;;2.38;;
76995;SDS011;65929;49.062;10.338;2023-02-28T01:31:17;3.67;;;1.90;;
76995;SDS011;65929;49.062;10.338;2023-02-28T01:32:19;3.22;;;1.65;;
76995;SDS011;65929;49.062;10.338;2023-02-28T01:33:20;4.60;;;2.30;;
76995;SDS011;65929;49.062;10.338;2023-02-28T01:34:21;4.20;;;2.30;;
76995;SDS011;65929;49.062;10.338;2023-02-28T01:35:22;2.20;;;1.50;;
76995;SDS011;65929;49.062;10.338;2023-02-28T01:36:24;6.40;;;2.50;;
76995;SDS011;65929;49.062;10.338;2023-02-28T01:37:25;3.15;;;1.75;;
76995;SDS011;65929;49.062;10.338;2023-02-28T01:38:26;3.15;;;1.92;;
76995;SDS011;65929;49.062;10.338;2023-02-28T01:39:27;3.60;;;2.05;;
76995;SDS011;65929;49.062;10.338;2023-02-28T01:40:28;2.72;;;1.60;;
76995;SDS011;65929;49.062;10.338;2023-02-28T01:41:30;2.90;;;1.90;;
76995;SDS011;65929;49.062;10.338;2023-02-28T01:42:32;3.70;;;2.38;;
76995;SDS011;65929;49.062;10.338;2023-02-28T01:44:58;2.83;;;1.58;;
76995;SDS011;65929;49.062;10.338;2023-02-28T01:46:04;3.28;;;1.95;;
76995;SDS011;65929;49.062;10.338;2023-02-28T01:47:05;4.18;;;2.10;;
76995;SDS011;65929;49.062;10.338;2023-02-28T01:48:07;2.97;;;1.85;;
76995;SDS011;65929;49.062;10.338;2023-02-28T01:49:11;3.13;;;2.00;;
76995;SDS011;65929;49.062;10.338;2023-02-28T01:50:16;1.90;;;1.50;;
76995;SDS011;65929;49.062;10.338;2023-02-28T01:51:21;6.80;;;2.28;;
76995;SDS011;65929;49.062;10.338;2023-02-28T01:52:26;3.35;;;2.10;;
76995;SDS011;65929;49.062;10.338;2023-02-28T01:53:29;4.05;;;2.20;;
76995;SDS011;65929;49.062;10.338;2023-02-28T01:54:34;3.80;;;2.08;;
76995;SDS011;65929;49.062;10.338;2023-02-28T01:55:35;5.93;;;1.80;;
76995;SDS011;65929;49.062;10.338;2023-02-28T01:56:37;3.17;;;2.08;;
76995;SDS011;65929;49.062;10.338;2023-02-28T01:57:39;4.13;;;1.83;;
76995;SDS011;65929;49.062;10.338;2023-02-28T01:58:46;2.92;;;1.95;;
76995;SDS011;65929;49.062;10.338;2023-02-28T01:59:47;4.47;;;2.13;;
76995;SDS011;65929;49.062;10.338;2023-02-28T02:00:52;5.20;;;1.77;;
76995;SDS011;65929;49.062;10.338;2023-02-28T02:01:54;3.40;;;2.00;;
76995;SDS011;65929;49.062;10.338;2023-02-28T02:02:55;2.90;;;1.38;;
76995;SDS011;65929;49.062;10.338;2023-02-28T02:03:59;4.72;;;2.50;;
76995;SDS011;65929;49.062;10.338;2023-02-28T02:05:03;3.22;;;1.65;;
76995;SDS011;65929;49.062;10.338;2023-02-28T02:06:05;3.03;;;1.92;;
76995;SDS011;65929;49.062;10.338;2023-02-28T02:07:08;2.67;;;2.10;;
76995;SDS011;65929;49.062;10.338;2023-02-28T02:08:11;5.05;;;2.10;;
76995;SDS011;65929;49.062;10.338;2023-02-28T02:09:14;3.30;;;1.92;;
76995;SDS011;65929;49.062;10.338;2023-02-28T02:10:15;6.25;;;2.03;;
76995;SDS011;65929;49.062;10.338;2023-02-28T02:11:17;3.17;;;1.80;;
76995;SDS011;65929;49.062;10.338;2023-02-28T02:12:23;2.75;;;2.10;;
76995;SDS011;65929;49.062;10.338;2023-02-28T02:13:52;4.47;;;2.75;;
76995;SDS011;65929;49.062;10.338;2023-02-28T02:15:06;3.55;;;2.25;;
76995;SDS011;65929;49.062;10.338;2023-02-28T02:16:18;3.35;;;2.45;;
76995;SDS011;65929;49.062;10.338;2023-02-28T02:17:31;4.05;;;1.88;;
76995;SDS011;65929;49.062;10.338;2023-02-28T02:18:40;3.58;;;2.25;;
76995;SDS011;65929;49.062;10.338;2023-02-28T02:19:54;4.57;;;2.20;;
76995;SDS011;65929;49.062;10.338;2023-02-28T02:23:09;4.60;;;1.67;;
76995;SDS011;65929;49.062;10.338;2023-02-28T02:24:39;4.05;;;2.05;;
76995;SDS011;65929;49.062;10.338;2023-02-28T02:26:14;3.35;;;1.92;;
76995;SDS011;65929;49.062;10.338;2023-02-28T02:27:37;2.85;;;2.08;;
76995;SDS011;65929;49.062;10.338;2023-02-28T02:28:57;3.35;;;1.98;;
76995;SDS011;65929;49.062;10.338;2023-02-28T02:30:18;4.95;;;2.10;;
76995;SDS011;65929;49.062;10.338;2023-02-28T02:31:50;7.05;;;2.42;;
76995;SDS011;65929;49.062;10.338;2023-02-28T02:33:09;3.60;;;2.03;;
76995;SDS011;65929;49.062;10.338;2023-02-28T02:35:52;2.65;;;1.85;;
76995;SDS011;65929;49.062;10.338;2023-02-28T02:36:58;3.67;;;1.77;;
76995;SDS011;65929;49.062;10.338;2023-02-28T02:38:09;4.20;;;2.08;;
76995;SDS011;65929;49.062;10.338;2023-02-28T02:39:14;3.70;;;1.83;;
76995;SDS011;65929;49.062;10.338;2023-02-28T02:40:19;5.07;;;2.30;;
76995;SDS011;65929;49.062;10.338;2023-02-28T02:41:23;3.92;;;2.10;;
76995;SDS011;65929;49.062;10.338;2023-02-28T02:42:47;4.15;;;2.40;;
76995;SDS011;65929;49.062;10.338;2023-02-28T02:45:03;1.83;;;1.30;;
76995;SDS011;65929;49.062;10.338;2023-02-28T02:46:08;4.78;;;1.83;;
76995;SDS011;65929;49.062;10.338;2023-02-28T02:47:13;3.80;;;2.72;;
76995;SDS011;65929;49.062;10.338;2023-02-28T02:48:18;4.40;;;2.70;;
76995;SDS011;65929;49.062;10.338;2023-02-28T02:49:22;2.88;;;1.98;;
76995;SDS011;65929;49.062;10.338;2023-02-28T02:50:31;3.53;;;2.33;;
76995;SDS011;65929;49.062;10.338;2023-02-28T02:51:39;3.42;;;1.95;;
76995;SDS011;65929;49.062;10.338;2023-02-28T02:52:44;2.90;;;2.05;;
76995;SDS011;65929;49.062;10.338;2023-02-28T02:53:49;6.78;;;2.72;;
76995;SDS011;65929;49.062;10.338;2023-02-28T02:54:54;4.20;;;2.15;;
76995;SDS011;65929;49.062;10.338;2023-02-28T02:55:57;3.65;;;2.10;;
76995;SDS011;65929;49.062;10.338;2023-02-28T02:57:04;4.47;;;2.40;;
76995;SDS011;65929;49.062;10.338;2023-02-28T02:58:10;4.10;;;2.33;;
76995;SDS011;65929;49.062;10.338;2023-02-28T03:00:22;4.07;;;2.22;;
76995;SDS011;65929;49.062;10.338;2023-02-28T03:01:26;5.57;;;2.40;;
76995;SDS011;65929;49.062;10.338;2023-02-28T03:02:30;4.55;;;3.15;;
76995;SDS011;65929;49.062;10.338;2023-02-28T03:03:34;4.15;;;2.08;;
76995;SDS011;65929;49.062;10.338;2023-02-28T03:04:38;3.38;;;2.33;;
76995;SDS011;65929;49.062;10.338;2023-02-28T03:05:48;3.08;;;1.52;;
76995;SDS011;65929;49.062;10.338;2023-02-28T03:06:50;4.18;;;2.70;;
76995;SDS011;65929;49.062;10.338;2023-02-28T03:07:54;4.05;;;1.90;;
76995;SDS011;65929;49.062;10.338;2023-02-28T03:08:55;4.55;;;2.40;;
76995;SDS011;65929;49.062;10.338;2023-02-28T03:09:56;4.15;;;2.78;;
76995;SDS011;65929;49.062;10.338;2023-02-28T03:10:58;6.10;;;2.78;;
76995;SDS011;65929;49.062;10.338;2023-02-28T03:12:02;3.33;;;2.55;;
76995;SDS011;65929;49.062;10.338;2023-02-28T03:13:12;3.20;;;2.05;;
76995;SDS011;65929;49.062;10.338;2023-02-28T03:14:40;4.22;;;2.42;;
76995;SDS011;65929;49.062;10.338;2023-02-28T03:15:52;5.35;;;2.75;;
76995;SDS011;65929;49.062;10.338;2023-02-28T03:17:10;3.55;;;2.42;;
76995;SDS011;65929;49.062;10.338;2023-02-28T03:18:30;3.95;;;2.22;;
76995;SDS011;65929;49.062;10.338;2023-02-28T03:19:45;4.97;;;1.75;;
76995;SDS011;65929;49.062;10.338;2023-02-28T03:20:56;3.80;;;2.63;;
76995;SDS011;65929;49.062;10.338;2023-02-28T03:22:09;4.57;;;2.40;;
76995;SDS011;65929;49.062;10.338;2023-02-28T03:23:21;5.55;;;2.47;;
76995;SDS011;65929;49.062;10.338;2023-02-28T03:24:27;4.15;;;2.15;;
76995;SDS011;65929;49.062;10.338;2023-02-28T03:25:34;3.35;;;2.20;;
76995;SDS011;65929;49.062;10.338;2023-02-28T03:26:41;5.50;;;2.35;;
76995;SDS011;65929;49.062;10.338;2023-02-28T03:27:46;4.25;;;2.20;;
76995;SDS011;65929;49.062;10.338;2023-02-28T03:28:55;7.25;;;2.70;;
76995;SDS011;65929;49.062;10.338;2023-02-28T03:30:03;4.25;;;2.10;;
76995;SDS011;65929;49.062;10.338;2023-02-28T03:31:10;6.90;;;2.60;;
76995;SDS011;65929;49.062;10.338;2023-02-28T03:32:17;6.22;;;2.20;;
76995;SDS011;65929;49.062;10.338;2023-02-28T03:33:24;4.15;;;2.15;;
76995;SDS011;65929;49.062;10.338;2023-02-28T03:34:31;4.22;;;2.20;;
76995;SDS011;65929;49.062;10.338;2023-02-28T03:35:37;6.55;;;2.30;;
76995;SDS011;65929;49.062;10.338;2023-02-28T03:36:44;4.57;;;2.63;;
76995;SDS011;65929;49.062;10.338;2023-02-28T03:37:48;4.43;;;2.20;;
76995;SDS011;65929;49.062;10.338;2023-02-28T03:38:56;3.20;;;1.85;;
76995;SDS011;65929;49.062;10.338;2023-02-28T03:40:03;4.00;;;2.00;;
76995;SDS011;65929;49.062;10.338;2023-02-28T03:41:10;3.97;;;2.30;;
76995;SDS011;65929;49.062;10.338;2023-02-28T03:42:15;4.50;;;2.60;;
76995;SDS011;65929;49.062;10.338;2023-02-28T03:43:22;3.72;;;2.05;;
76995;SDS011;65929;49.062;10.338;2023-02-28T03:44:28;2.22;;;1.80;;
76995;SDS011;65929;49.062;10.338;2023-02-28T03:45:33;4.40;;;2.25;;
76995;SDS011;65929;49.062;10.338;2023-02-28T03:46:38;4.88;;;2.85;;
76995;SDS011;65929;49.062;10.338;2023-02-28T03:47:45;3.70;;;2.17;;
76995;SDS011;65929;49.062;10.338;2023-02-28T03:48:53;3.03;;;2.20;;
76995;SDS011;65929;49.062;10.338;2023-02-28T03:50:01;4.57;;;2.85;;
76995;SDS011;65929;49.062;10.338;2023-02-28T03:51:07;4.55;;;2.72;;
76995;SDS011;65929;49.062;10.338;2023-02-28T03:52:13;6.10;;;2.67;;
76995;SDS011;65929;49.062;10.338;2023-02-28T03:53:18;5.25;;;2.40;;
76995;SDS011;65929;49.062;10.338;2023-02-28T03:54:23;6.47;;;2.72;;
76995;SDS011;65929;49.062;10.338;2023-02-28T03:55:29;5.25;;;2.83;;
76995;SDS011;65929;49.062;10.338;2023-02-28T03:56:39;3.95;;;2.45;;
76995;SDS011;65929;49.062;10.338;2023-02-28T03:57:45;4.45;;;2.58;;
76995;SDS011;65929;49.062;10.338;2023-02-28T03:58:55;6.93;;;3.10;;
76995;SDS011;65929;49.062;10.338;2023-02-28T03:59:59;4.78;;;3.17;;
76995;SDS011;65929;49.062;10.338;2023-02-28T04:01:07;4.13;;;2.70;;
76995;SDS011;65929;49.062;10.338;2023-02-28T04:02:11;4.15;;;2.05;;
76995;SDS011;65929;49.062;10.338;2023-02-28T04:03:12;6.28;;;3.30;;
76995;SDS011;65929;49.062;10.338;2023-02-28T04:04:14;7.05;;;2.83;;
76995;SDS011;65929;49.062;10.338;2023-02-28T04:05:17;4.93;;;2.30;;
76995;SDS011;65929;49.062;10.338;2023-02-28T04:06:18;3.90;;;2.42;;
76995;SDS011;65929;49.062;10.338;2023-02-28T04:07:22;5.43;;;3.05;;
76995;SDS011;65929;49.062;10.338;2023-02-28T04:08:23;3.78;;;2.30;;
76995;SDS011;65929;49.062;10.338;2023-02-28T04:09:24;7.22;;;2.47;;
76995;SDS011;65929;49.062;10.338;2023-02-28T04:10:25;3.67;;;2.45;;
76995;SDS011;65929;49.062;10.338;2023-02-28T04:11:27;5.63;;;2.90;;
76995;SDS011;65929;49.062;10.338;2023-02-28T04:12:32;4.63;;;2.80;;
76995;SDS011;65929;49.062;10.338;2023-02-28T04:13:33;6.80;;;2.40;;
76995;SDS011;65929;49.062;10.338;2023-02-28T04:14:34;6.78;;;2.83;;
76995;SDS011;65929;49.062;10.338;2023-02-28T04:15:35;6.40;;;2.80;;
76995;SDS011;65929;49.062;10.338;2023-02-28T04:16:39;4.80;;;2.38;;
76995;SDS011;65929;49.062;10.338;2023-02-28T04:17:41;5.07;;;2.90;;
76995;SDS011;65929;49.062;10.338;2023-02-28T04:18:42;7.18;;;2.92;;
76995;SDS011;65929;49.062;10.338;2023-02-28T04:19:43;4.70;;;2.40;;
76995;SDS011;65929;49.062;10.338;2023-02-28T04:20:44;7.28;;;3.10;;
76995;SDS011;65929;49.062;10.338;2023-02-28T04:21:46;5.47;;;3.25;;
76995;SDS011;65929;49.062;10.338;2023-02-28T04:22:49;8.98;;;3.20;;
76995;SDS011;65929;49.062;10.338;2023-02-28T04:23:50;6.72;;;2.83;;
76995;SDS011;65929;49.062;10.338;2023-02-28T04:24:51;3.03;;;2.03;;
76995;SDS011;65929;49.062;10.338;2023-02-28T04:25:54;7.50;;;3.33;;
76995;SDS011;65929;49.062;10.338;2023-02-28T04:26:56;4.28;;;2.50;;
76995;SDS011;65929;49.062;10.338;2023-02-28T04:27:58;6.47;;;2.72;;
76995;SDS011;65929;49.062;10.338;2023-02-28T04:28:59;6.07;;;3.17;;
76995;SDS011;65929;49.062;10.338;2023-02-28T04:30:01;3.95;;;2.28;;
76995;SDS011;65929;49.062;10.338;2023-02-28T04:31:02;3.75;;;2.72;;
76995;SDS011;65929;49.062;10.338;2023-02-28T04:32:04;2.92;;;1.75;;
76995;SDS011;65929;49.062;10.338;2023-02-28T04:33:05;3.70;;;2.60;;
76995;SDS011;65929;49.062;10.338;2023-02-28T04:34:06;5.72;;;2.30;;
76995;SDS011;65929;49.062;10.338;2023-02-28T04:35:08;4.03;;;2.13;;
76995;SDS011;65929;49.062;10.338;2023-02-28T04:36:09;6.30;;;2.60;;
76995;SDS011;65929;49.062;10.338;2023-02-28T04:37:09;6.30;;;2.97;;
76995;SDS011;65929;49.062;10.338;2023-02-28T04:38:12;5.72;;;2.20;;
76995;SDS011;65929;49.062;10.338;2023-02-28T04:39:13;3.75;;;1.90;;
76995;SDS011;65929;49.062;10.338;2023-02-28T04:40:15;4.85;;;2.88;;
76995;SDS011;65929;49.062;10.338;2023-02-28T04:41:16;5.22;;;3.15;;
76995;SDS011;65929;49.062;10.338;2023-02-28T04:42:17;5.22;;;2.40;;
76995;SDS011;65929;49.062;10.338;2023-02-28T04:43:18;4.85;;;2.45;;
76995;SDS011;65929;49.062;10.338;2023-02-28T04:44:19;3.85;;;2.70;;
76995;SDS011;65929;49.062;10.338;2023-02-28T04:45:20;6.45;;;2.85;;
76995;SDS011;65929;49.062;10.338;2023-02-28T04:46:21;5.75;;;2.80;;
76995;SDS011;65929;49.062;10.338;2023-02-28T04:47:22;5.18;;;2.03;;
76995;SDS011;65929;49.062;10.338;2023-02-28T04:48:24;6.72;;;2.97;;
76995;SDS011;65929;49.062;10.338;2023-02-28T04:49:25;5.78;;;2.35;;
76995;SDS011;65929;49.062;10.338;2023-02-28T04:50:26;5.40;;;2.65;;
76995;SDS011;65929;49.062;10.338;2023-02-28T04:51:27;6.85;;;2.83;;
76995;SDS011;65929;49.062;10.338;2023-02-28T04:52:28;6.78;;;3.05;;
76995;SDS011;65929;49.062;10.338;2023-02-28T04:53:31;6.57;;;2.78;;
76995;SDS011;65929;49.062;10.338;2023-02-28T04:54:32;5.38;;;3.15;;
76995;SDS011;65929;49.062;10.338;2023-02-28T04:55:33;2.78;;;2.00;;
76995;SDS011;65929;49.062;10.338;2023-02-28T04:56:34;5.70;;;2.70;;
76995;SDS011;65929;49.062;10.338;2023-02-28T04:57:35;4.35;;;2.25;;
76995;SDS011;65929;49.062;10.338;2023-02-28T04:58:37;4.93;;;2.55;;
76995;SDS011;65929;49.062;10.338;2023-02-28T04:59:38;7.85;;;3.50;;
76995;SDS011;65929;49.062;10.338;2023-02-28T05:00:39;4.40;;;2.50;;
76995;SDS011;65929;49.062;10.338;2023-02-28T05:01:40;6.35;;;2.80;;
76995;SDS011;65929;49.062;10.338;2023-02-28T05:02:45;5.90;;;3.00;;
76995;SDS011;65929;49.062;10.338;2023-02-28T05:03:46;6.03;;;2.88;;
76995;SDS011;65929;49.062;10.338;2023-02-28T05:04:47;5.43;;;2.63;;
76995;SDS011;65929;49.062;10.338;2023-02-28T05:05:48;5.28;;;2.92;;
76995;SDS011;65929;49.062;10.338;2023-02-28T05:06:49;5.82;;;2.85;;
76995;SDS011;65929;49.062;10.338;2023-02-28T05:07:50;5.72;;;2.65;;
76995;SDS011;65929;49.062;10.338;2023-02-28T05:08:52;7.35;;;2.95;;
76995;SDS011;65929;49.062;10.338;2023-02-28T05:09:53;5.90;;;2.90;;
76995;SDS011;65929;49.062;10.338;2023-02-28T05:10:54;6.63;;;3.50;;
76995;SDS011;65929;49.062;10.338;2023-02-28T05:11:55;7.13;;;2.88;;
76995;SDS011;65929;49.062;10.338;2023-02-28T05:12:56;6.60;;;3.03;;
76995;SDS011;65929;49.062;10.338;2023-02-28T05:13:57;2.80;;;1.63;;
76995;SDS011;65929;49.062;10.338;2023-02-28T05:14:58;5.32;;;2.97;;
76995;SDS011;65929;49.062;10.338;2023-02-28T05:16:01;5.82;;;2.63;;
76995;SDS011;65929;49.062;10.338;2023-02-28T05:17:02;7.75;;;3.95;;
76995;SDS011;65929;49.062;10.338;2023-02-28T05:18:03;8.05;;;2.80;;
76995;SDS011;65929;49.062;10.338;2023-02-28T05:19:04;4.97;;;2.90;;
76995;SDS011;65929;49.062;10.338;2023-02-28T05:20:05;5.40;;;2.92;;
76995;SDS011;65929;49.062;10.338;2023-02-28T05:21:12;5.93;;;3.05;;
76995;SDS011;65929;49.062;10.338;2023-02-28T05:22:24;6.50;;;2.92;;
76995;SDS011;65929;49.062;10.338;2023-02-28T05:23:25;5.20;;;3.28;;
76995;SDS011;65929;49.062;10.338;2023-02-28T05:24:27;5.05;;;2.97;;
76995;SDS011;65929;49.062;10.338;2023-02-28T05:25:28;4.50;;;2.70;;
76995;SDS011;65929;49.062;10.338;2023-02-28T05:26:30;7.40;;;2.88;;
76995;SDS011;65929;49.062;10.338;2023-02-28T05:27:33;8.07;;;3.33;;
76995;SDS011;65929;49.062;10.338;2023-02-28T05:28:34;7.05;;;3.10;;
76995;SDS011;65929;49.062;10.338;2023-02-28T05:29:35;5.43;;;2.92;;
76995;SDS011;65929;49.062;10.338;2023-02-28T05:30:41;6.30;;;3.55;;
76995;SDS011;65929;49.062;10.338;2023-02-28T05:31:42;4.30;;;2.38;;
76995;SDS011;65929;49.062;10.338;2023-02-28T05:32:43;6.57;;;3.15;;
76995;SDS011;65929;49.062;10.338;2023-02-28T05:33:49;9.82;;;3.72;;
76995;SDS011;65929;49.062;10.338;2023-02-28T05:34:51;6.88;;;3.08;;
76995;SDS011;65929;49.062;10.338;2023-02-28T05:35:52;5.13;;;2.55;;
76995;SDS011;65929;49.062;10.338;2023-02-28T05:36:53;5.90;;;3.40;;
76995;SDS011;65929;49.062;10.338;2023-02-28T05:37:54;10.25;;;4.28;;
76995;SDS011;65929;49.062;10.338;2023-02-28T05:38:55;14.88;;;5.47;;
76995;SDS011;65929;49.062;10.338;2023-02-28T05:39:57;9.60;;;3.53;;
76995;SDS011;65929;49.062;10.338;2023-02-28T05:40:58;7.53;;;3.95;;
76995;SDS011;65929;49.062;10.338;2023-02-28T05:41:59;6.10;;;3.17;;
76995;SDS011;65929;49.062;10.338;2023-02-28T05:43:00;9.45;;;3.65;;
76995;SDS011;65929;49.062;10.338;2023-02-28T05:44:01;7.07;;;3.15;;
76995;SDS011;65929;49.062;10.338;2023-02-28T05:45:02;6.55;;;3.60;;
76995;SDS011;65929;49.062;10.338;2023-02-28T05:46:04;6.03;;;3.40;;
76995;SDS011;65929;49.062;10.338;2023-02-28T05:47:06;8.15;;;3.33;;
76995;SDS011;65929;49.062;10.338;2023-02-28T05:48:07;7.43;;;3.75;;
76995;SDS011;65929;49.062;10.338;2023-02-28T05:49:08;4.82;;;3.08;;
76995;SDS011;65929;49.062;10.338;2023-02-28T05:50:09;6.05;;;3.20;;
76995;SDS011;65929;49.062;10.338;2023-02-28T05:51:11;7.10;;;3.80;;
76995;SDS011;65929;49.062;10.338;2023-02-28T05:52:12;5.72;;;2.95;;
76995;SDS011;65929;49.062;10.338;2023-02-28T05:53:12;5.22;;;3.88;;
76995;SDS011;65929;49.062;10.338;2023-02-28T05:54:13;6.47;;;3.13;;
76995;SDS011;65929;49.062;10.338;2023-02-28T05:55:16;9.23;;;3.88;;
76995;SDS011;65929;49.062;10.338;2023-02-28T05:56:17;5.50;;;3.15;;
76995;SDS011;65929;49.062;10.338;2023-02-28T05:57:18;6.65;;;3.25;;
76995;SDS011;65929;49.062;10.338;2023-02-28T05:58:19;8.32;;;3.08;;
76995;SDS011;65929;49.062;10.338;2023-02-28T05:59:20;6.90;;;3.55;;
76995;SDS011;65929;49.062;10.338;2023-02-28T06:00:21;4.80;;;3.35;;
76995;SDS011;65929;49.062;10.338;2023-02-28T06:01:24;6.22;;;3.35;;
76995;SDS011;65929;49.062;10.338;2023-02-28T06:02:31;9.25;;;3.30;;
76995;SDS011;65929;49.062;10.338;2023-02-28T06:03:32;6.32;;;3.70;;
76995;SDS011;65929;49.062;10.338;2023-02-28T06:04:32;7.93;;;3.65;;
76995;SDS011;65929;49.062;10.338;2023-02-28T06:05:34;5.80;;;3.22;;
76995;SDS011;65929;49.062;10.338;2023-02-28T06:06:35;6.03;;;3.78;;
76995;SDS011;65929;49.062;10.338;2023-02-28T06:07:37;8.45;;;3.50;;
76995;SDS011;65929;49.062;10.338;2023-02-28T06:08:38;6.65;;;3.72;;
76995;SDS011;65929;49.062;10.338;2023-02-28T06:09:39;6.43;;;2.90;;
76995;SDS011;65929;49.062;10.338;2023-02-28T06:10:41;6.70;;;3.22;;
76995;SDS011;65929;49.062;10.338;2023-02-28T06:11:42;6.88;;;3.70;;
76995;SDS011;65929;49.062;10.338;2023-02-28T06:12:44;6.32;;;3.15;;
76995;SDS011;65929;49.062;10.338;2023-02-28T06:13:45;7.22;;;3.70;;
76995;SDS011;65929;49.062;10.338;2023-02-28T06:14:46;8.43;;;4.15;;
76995;SDS011;65929;49.062;10.338;2023-02-28T06:15:47;7.38;;;3.63;;
76995;SDS011;65929;49.062;10.338;2023-02-28T06:16:48;6.40;;;3.50;;
76995;SDS011;65929;49.062;10.338;2023-02-28T06:17:49;9.25;;;3.92;;
76995;SDS011;65929;49.062;10.338;2023-02-28T06:18:49;6.75;;;3.25;;
76995;SDS011;65929;49.062;10.338;2023-02-28T06:19:50;5.72;;;3.38;;
76995;SDS011;65929;49.062;10.338;2023-02-28T06:20:52;7.80;;;4.03;;
76995;SDS011;65929;49.062;10.338;2023-02-28T06:21:54;9.32;;;3.40;;
76995;SDS011;65929;49.062;10.338;2023-02-28T06:22:57;6.07;;;3.28;;
76995;SDS011;65929;49.062;10.338;2023-02-28T06:24:01;7.72;;;3.42;;